Time;durP1;ratioP1;P1;durP2;ratioP2;P2;SDS_P1;SDS_P2;PMS_P1;PMS_P2;Temp;Humidity;BMP_temperature;BMP_pressure;BME280_temperature;BME280_humidity;BME280_pressure;Samples;Min_cycle;Max_cycle;Signal;HPM_P1;HPM_P2
2021/04/07 00:01:57;;;;;;;5.43;3.00;;;;;;;-144.43;100.00;61244.34;5031355;28;20695;-73
2021/04/07 00:04:22;;;;;;;4.57;3.00;;;;;;;-144.43;100.00;61244.34;5014536;28;20254;-74
2021/04/07 00:06:48;;;;;;;3.57;3.17;;;;;;;-144.43;100.00;61244.34;5031521;28;20541;-74
2021/04/07 00:09:13;;;;;;;4.33;2.90;;;;;;;-144.43;100.00;61244.34;5030992;28;20195;-74
2021/04/07 00:11:39;;;;;;;5.53;3.40;;;;;;;-144.43;100.00;61244.34;5030741;28;20194;-74
2021/04/07 00:14:08;;;;;;;3.87;3.00;;;;;;;-144.43;100.00;61244.34;5030850;28;20200;-74
2021/04/07 00:16:34;;;;;;;4.60;3.17;;;;;;;-144.43;100.00;61244.34;5030615;28;20181;-74
2021/04/07 00:19:00;;;;;;;3.57;3.10;;;;;;;-144.43;100.00;61244.34;5031107;28;20183;-74
2021/04/07 00:21:25;;;;;;;3.30;3.00;;;;;;;-144.43;100.00;61244.34;5032463;28;20178;-74
2021/04/07 00:23:51;;;;;;;5.67;3.40;;;;;;;-144.43;100.00;61244.34;5030600;28;20218;-74
2021/04/07 00:26:16;;;;;;;3.57;3.23;;;;;;;-144.43;100.00;61244.34;5030535;28;20269;-74
2021/04/07 00:28:41;;;;;;;4.43;3.20;;;;;;;-144.43;100.00;61244.34;5030725;28;20702;-74
2021/04/07 00:31:07;;;;;;;5.13;3.77;;;;;;;-144.43;100.00;61244.34;5014261;28;20182;-74
2021/04/07 00:33:32;;;;;;;5.70;3.60;;;;;;;-144.43;100.00;61244.34;5031808;28;20605;-74
2021/04/07 00:35:57;;;;;;;5.07;3.83;;;;;;;-144.43;100.00;61244.34;5030452;28;20178;-74
2021/04/07 00:38:22;;;;;;;5.33;4.17;;;;;;;-144.43;100.00;61244.34;5030408;28;20213;-74
2021/04/07 00:40:48;;;;;;;6.03;4.20;;;;;;;-144.43;100.00;61244.34;5013971;28;20183;-74
2021/04/07 00:43:13;;;;;;;5.53;3.97;;;;;;;-144.43;100.00;61244.34;5031642;28;20290;-74
2021/04/07 00:45:39;;;;;;;5.77;4.23;;;;;;;-144.43;100.00;61244.34;5030077;28;20182;-74
2021/04/07 00:48:05;;;;;;;8.83;4.40;;;;;;;-144.43;100.00;61244.34;5031698;28;20191;-74
2021/04/07 00:50:32;;;;;;;6.77;5.07;;;;;;;-144.43;100.00;61244.34;5013844;28;20183;-74
2021/04/07 00:52:58;;;;;;;5.90;5.10;;;;;;;-144.43;100.00;61244.34;5030381;28;20175;-74
2021/04/07 00:55:27;;;;;;;6.43;4.87;;;;;;;-144.43;100.00;61244.34;5031303;28;20225;-74
2021/04/07 00:57:53;;;;;;;5.90;4.77;;;;;;;-144.43;100.00;61244.34;5030360;28;20183;-74
2021/04/07 01:00:19;;;;;;;5.40;4.87;;;;;;;-144.43;100.00;61244.34;5046865;28;20721;-74
2021/04/07 01:02:45;;;;;;;6.70;5.10;;;;;;;-144.43;100.00;61244.34;5046614;28;20263;-74
2021/04/07 01:05:11;;;;;;;9.87;5.70;;;;;;;-144.43;100.00;61244.34;5031174;28;20192;-74
2021/04/07 01:07:37;;;;;;;8.30;5.47;;;;;;;-144.43;100.00;61244.34;5031159;28;20234;-74
2021/04/07 01:10:07;;;;;;;10.23;5.90;;;;;;;-144.43;100.00;61244.34;5046790;28;20216;-75
2021/04/07 01:12:32;;;;;;;7.57;5.40;;;;;;;-144.43;100.00;61244.34;5031342;28;20196;-73
2021/04/07 01:14:58;;;;;;;6.53;5.10;;;;;;;-144.43;100.00;61244.34;5031041;28;20194;-74
2021/04/07 01:17:23;;;;;;;6.47;5.13;;;;;;;-144.43;100.00;61244.34;5029807;28;20268;-74
2021/04/07 01:19:49;;;;;;;7.70;5.10;;;;;;;-144.43;100.00;61244.34;5030012;28;20186;-74
2021/04/07 01:22:15;;;;;;;6.27;4.70;;;;;;;-144.43;100.00;61244.34;5031285;28;20638;-73
2021/04/07 01:24:40;;;;;;;10.70;5.53;;;;;;;-144.43;100.00;61244.34;5046354;28;20206;-73
2021/04/07 01:27:05;;;;;;;9.67;4.70;;;;;;;-144.43;100.00;61244.34;5046618;28;20221;-73
2021/04/07 01:29:31;;;;;;;6.60;4.70;;;;;;;-144.43;100.00;61244.34;5029940;28;20175;-73
2021/04/07 01:31:56;;;;;;;5.87;5.27;;;;;;;-144.43;100.00;61244.34;5046510;28;20179;-74
2021/04/07 01:34:27;;;;;;;6.57;4.87;;;;;;;-144.43;100.00;61244.34;5029462;28;20204;-74
2021/04/07 01:36:54;;;;;;;9.90;4.70;;;;;;;-144.43;100.00;61244.34;5046553;28;20217;-74
2021/04/07 01:39:21;;;;;;;6.33;4.87;;;;;;;-144.43;100.00;61244.34;5046565;28;20214;-74
2021/04/07 01:41:47;;;;;;;7.20;4.97;;;;;;;-144.43;100.00;61244.34;5029774;28;20175;-74
2021/04/07 01:44:14;;;;;;;6.80;5.30;;;;;;;-144.43;100.00;61244.34;5046328;28;20205;-74
2021/04/07 01:46:39;;;;;;;6.20;5.23;;;;;;;-144.43;100.00;61244.34;5029657;28;20645;-74
2021/04/07 01:49:07;;;;;;;6.17;5.20;;;;;;;-144.43;100.00;61244.34;5046361;28;20212;-74
2021/04/07 01:51:33;;;;;;;5.90;5.10;;;;;;;-144.43;100.00;61244.34;5029503;28;20650;-74
2021/04/07 01:53:59;;;;;;;8.27;5.37;;;;;;;-144.43;100.00;61244.34;5029630;28;20318;-74
2021/04/07 01:56:25;;;;;;;6.23;5.03;;;;;;;-144.43;100.00;61244.34;5013436;28;20187;-74
2021/04/07 01:59:02;;;;;;;10.43;6.03;;;;;;;-144.43;100.00;61244.34;5034734;28;20190;-74
2021/04/07 02:01:28;;;;;;;8.17;5.33;;;;;;;-144.43;100.00;61244.34;5050172;28;20209;-74
2021/04/07 02:03:54;;;;;;;7.73;6.20;;;;;;;-144.43;100.00;61244.34;5034727;28;20237;-74
2021/04/07 02:06:19;;;;;;;6.77;5.83;;;;;;;-144.43;100.00;61244.34;5049760;28;20179;-74
2021/04/07 02:08:45;;;;;;;7.40;6.00;;;;;;;-144.43;100.00;61244.34;5049974;28;20210;-74
2021/04/07 02:11:10;;;;;;;8.10;6.10;;;;;;;-144.43;100.00;61244.34;5034441;28;20187;-74
2021/04/07 02:13:35;;;;;;;7.90;6.30;;;;;;;-144.43;100.00;61244.34;5049785;28;20260;-74
2021/04/07 02:16:08;;;;;;;7.20;6.20;;;;;;;-144.43;100.00;61244.34;5049518;28;20639;-74
2021/04/07 02:18:34;;;;;;;7.50;6.37;;;;;;;-144.43;100.00;61244.34;5034561;28;20211;-74
2021/04/07 02:20:59;;;;;;;12.63;6.60;;;;;;;-144.43;100.00;61244.34;5049779;28;20206;-74
2021/04/07 02:23:24;;;;;;;9.23;7.60;;;;;;;-144.43;100.00;61244.34;5049559;28;20758;-74
2021/04/07 02:25:50;;;;;;;7.97;6.40;;;;;;;-144.43;100.00;61244.34;5049332;28;20179;-74
2021/04/07 02:28:15;;;;;;;10.90;6.70;;;;;;;-144.43;100.00;61244.34;5035035;28;20215;-74
2021/04/07 02:30:40;;;;;;;7.63;6.00;;;;;;;-144.43;100.00;61244.34;5033048;28;20184;-74
2021/04/07 02:33:06;;;;;;;7.90;6.43;;;;;;;-144.43;100.00;61244.34;5049413;28;20210;-74
2021/04/07 02:35:31;;;;;;;10.10;5.43;;;;;;;-144.43;100.00;61244.34;5032523;28;20278;-74
2021/04/07 02:37:56;;;;;;;7.07;4.30;;;;;;;-144.43;100.00;61244.34;5032618;28;20175;-74
2021/04/07 02:40:21;;;;;;;6.33;5.47;;;;;;;-144.43;100.00;61244.34;5049183;28;20237;-74
2021/04/07 02:42:47;;;;;;;6.60;4.10;;;;;;;-144.43;100.00;61244.34;5033916;28;20194;-73
2021/04/07 02:45:13;;;;;;;6.73;4.20;;;;;;;-144.43;100.00;61244.34;5049089;28;20180;-74
2021/04/07 02:47:38;;;;;;;4.80;4.00;;;;;;;-144.43;100.00;61244.34;5049154;28;20207;-74
2021/04/07 02:50:04;;;;;;;5.23;4.13;;;;;;;-144.43;100.00;61244.34;5033748;28;20228;-74
2021/04/07 02:52:30;;;;;;;7.23;4.60;;;;;;;-144.43;100.00;61244.34;5048717;28;20242;-74
2021/04/07 02:54:55;;;;;;;5.63;3.70;;;;;;;-144.43;100.00;61244.34;5048830;28;20217;-74
2021/04/07 02:57:20;;;;;;;5.27;4.07;;;;;;;-144.43;100.00;61244.34;5033714;28;20184;-74
2021/04/07 02:59:45;;;;;;;6.37;4.13;;;;;;;-144.43;100.00;61244.34;5033606;28;20176;-74
2021/04/07 03:02:11;;;;;;;5.67;3.67;;;;;;;-144.43;100.00;61244.34;5032222;28;20543;-73
2021/04/07 03:04:36;;;;;;;7.23;4.20;;;;;;;-144.43;100.00;61244.34;5033407;28;20207;-74
2021/04/07 03:07:02;;;;;;;4.57;3.60;;;;;;;-144.43;100.00;61244.34;5033245;28;20184;-75
2021/04/07 03:09:27;;;;;;;4.47;3.97;;;;;;;-144.43;100.00;61244.34;5048947;28;20189;-74
2021/04/07 03:11:52;;;;;;;7.67;4.17;;;;;;;-144.43;100.00;61244.34;5033424;28;20188;-73
2021/04/07 03:14:18;;;;;;;8.07;4.57;;;;;;;-144.43;100.00;61244.34;5031701;28;20701;-74
2021/04/07 03:16:43;;;;;;;4.87;4.10;;;;;;;-144.43;100.00;61244.34;5031997;28;20642;-73
2021/04/07 03:19:08;;;;;;;10.17;4.60;;;;;;;-144.43;100.00;61244.34;5048661;28;20245;-73
2021/04/07 03:21:33;;;;;;;5.87;4.97;;;;;;;-144.43;100.00;61244.34;5048427;28;20182;-73
2021/04/07 03:23:59;;;;;;;4.77;4.03;;;;;;;-144.43;100.00;61244.34;5033107;28;20198;-73
2021/04/07 03:26:24;;;;;;;8.43;4.27;;;;;;;-144.43;100.00;61244.34;5032878;28;20639;-73
2021/04/07 03:28:49;;;;;;;5.40;3.97;;;;;;;-144.43;100.00;61244.34;5048388;28;20210;-73
2021/04/07 03:31:15;;;;;;;6.63;3.93;;;;;;;-144.43;100.00;61244.34;5048373;28;20191;-73
2021/04/07 03:33:40;;;;;;;5.70;3.83;;;;;;;-144.43;100.00;61244.34;5031591;28;20238;-74
2021/04/07 03:36:06;;;;;;;5.67;4.43;;;;;;;-144.43;100.00;61244.34;5047930;28;20179;-73
2021/04/07 03:38:33;;;;;;;4.53;3.87;;;;;;;-144.43;100.00;61244.34;5048158;28;20611;-74
2021/04/07 03:40:58;;;;;;;5.70;4.27;;;;;;;-144.43;100.00;61244.34;5032844;28;20178;-73
2021/04/07 03:43:24;;;;;;;7.57;4.53;;;;;;;-144.43;100.00;61244.34;5048072;28;20194;-75
2021/04/07 03:45:59;;;;;;;9.03;4.60;;;;;;;-144.43;100.00;61244.34;5031161;28;20239;-73
2021/04/07 03:48:27;;;;;;;5.50;4.37;;;;;;;-144.43;100.00;61244.34;5014869;28;20221;-73
2021/04/07 03:50:53;;;;;;;5.03;4.00;;;;;;;-144.43;100.00;61244.34;5031010;28;20170;-73
2021/04/07 03:53:18;;;;;;;7.10;4.27;;;;;;;-144.43;100.00;61244.34;5031267;28;20209;-73
2021/04/07 03:55:46;;;;;;;6.43;4.37;;;;;;;-144.43;100.00;61244.34;5047746;28;20547;-74
2021/04/07 03:58:12;;;;;;;8.93;4.33;;;;;;;-144.43;100.00;61244.34;5047942;28;20178;-74
2021/04/07 04:00:37;;;;;;;7.13;4.67;;;;;;;-144.43;100.00;61244.34;5047750;28;20327;-74
2021/04/07 04:03:02;;;;;;;6.13;4.03;;;;;;;-144.43;100.00;61244.34;5030993;28;20249;-74
2021/04/07 04:05:28;;;;;;;4.80;3.77;;;;;;;-144.43;100.00;61244.34;5032230;28;20205;-74
2021/04/07 04:07:53;;;;;;;4.43;3.47;;;;;;;-144.43;100.00;61244.34;5031100;28;20203;-74
2021/04/07 04:10:19;;;;;;;4.83;3.97;;;;;;;-144.43;100.00;61244.34;5032425;28;20231;-74
2021/04/07 04:12:44;;;;;;;4.93;3.70;;;;;;;-144.43;100.00;61244.34;5032107;28;20201;-74
2021/04/07 04:15:12;;;;;;;4.13;3.37;;;;;;;-144.43;100.00;61244.34;5047261;28;20665;-74
2021/04/07 04:17:38;;;;;;;7.23;3.83;;;;;;;-144.43;100.00;61244.34;5047484;28;20178;-74
2021/04/07 04:20:05;;;;;;;11.57;4.17;;;;;;;-144.43;100.00;61244.34;5013938;28;20222;-74
2021/04/07 04:22:31;;;;;;;7.27;4.03;;;;;;;-144.43;100.00;61244.34;5025418;28;20317;-74
2021/04/07 04:24:56;;;;;;;7.37;4.87;;;;;;;-144.43;100.00;61244.34;5027380;28;20202;-74
2021/04/07 04:27:22;;;;;;;4.40;3.60;;;;;;;-144.43;100.00;61244.34;5029538;28;20218;-74
2021/04/07 04:29:47;;;;;;;7.07;3.97;;;;;;;-144.43;100.00;61244.34;5024155;28;20547;-74
2021/04/07 04:32:13;;;;;;;6.20;4.90;;;;;;;-144.43;100.00;61244.34;5031723;28;20693;-74
2021/04/07 04:34:38;;;;;;;6.93;4.57;;;;;;;-144.43;100.00;61244.34;5026963;28;20205;-74
2021/04/07 04:37:03;;;;;;;9.73;4.30;;;;;;;-144.43;100.00;61244.34;5028861;28;20198;-74
2021/04/07 04:39:29;;;;;;;32.43;14.20;;;;;;;-144.43;100.00;61244.34;5022825;28;20202;-74
2021/04/07 04:41:54;;;;;;;36.80;15.17;;;;;;;-144.43;100.00;61244.34;5024399;28;20235;-74
2021/04/07 04:44:19;;;;;;;15.10;7.40;;;;;;;-144.43;100.00;61244.34;5024141;28;20590;-74
2021/04/07 04:46:44;;;;;;;5.37;4.00;;;;;;;-144.43;100.00;61244.34;5031655;28;20265;-74
2021/04/07 04:49:10;;;;;;;5.90;3.77;;;;;;;-144.43;100.00;61244.34;5031393;28;20809;-74
2021/04/07 04:51:35;;;;;;;9.90;4.77;;;;;;;-144.43;100.00;61244.34;5030443;28;20174;-75
2021/04/07 04:54:00;;;;;;;6.60;5.00;;;;;;;-144.43;100.00;61244.34;5027772;28;20211;-74
2021/04/07 04:56:26;;;;;;;5.80;3.90;;;;;;;-144.43;100.00;61244.34;5024015;28;20179;-74
2021/04/07 04:58:51;;;;;;;4.27;3.83;;;;;;;-144.43;100.00;61244.34;5030866;28;20187;-74
2021/04/07 05:01:16;;;;;;;5.47;3.80;;;;;;;-144.43;100.00;61244.34;5030339;28;20207;-74
2021/04/07 05:03:42;;;;;;;4.67;3.97;;;;;;;-144.43;100.00;61244.34;5030109;28;20749;-75
2021/04/07 05:06:07;;;;;;;8.77;5.20;;;;;;;-144.43;100.00;61244.34;5030088;28;20186;-74
2021/04/07 05:08:32;;;;;;;5.50;4.33;;;;;;;-144.43;100.00;61244.34;5029952;28;20210;-74
2021/04/07 05:10:57;;;;;;;4.40;3.90;;;;;;;-144.43;100.00;61244.34;5005031;28;20292;-74
2021/04/07 05:13:23;;;;;;;4.57;4.13;;;;;;;-144.43;100.00;61244.34;4993669;28;20219;-74
2021/04/07 05:15:48;;;;;;;6.37;4.03;;;;;;;-144.43;100.00;61244.34;5011446;28;20207;-74
2021/04/07 05:18:15;;;;;;;6.77;4.60;;;;;;;-144.43;100.00;61244.34;5022161;28;20636;-74
2021/04/07 05:20:41;;;;;;;7.07;4.77;;;;;;;-144.43;100.00;61244.34;5023712;28;20200;-74
2021/04/07 05:23:07;;;;;;;6.77;5.07;;;;;;;-144.43;100.00;61244.34;5013328;28;20202;-74
2021/04/07 05:25:32;;;;;;;6.60;3.80;;;;;;;-144.43;100.00;61244.34;5013111;28;20179;-74
2021/04/07 05:28:01;;;;;;;5.90;4.40;;;;;;;-144.43;100.00;61244.34;5030083;28;20198;-74
2021/04/07 05:30:26;;;;;;;8.93;4.10;;;;;;;-144.43;100.00;61244.34;5013445;28;20203;-74
2021/04/07 05:32:51;;;;;;;9.50;3.80;;;;;;;-144.43;100.00;61244.34;5033856;28;20179;-74
2021/04/07 05:35:17;;;;;;;5.47;4.07;;;;;;;-144.43;100.00;61244.34;5035089;28;20267;-73
2021/04/07 05:37:42;;;;;;;6.90;3.47;;;;;;;-144.43;100.00;61244.34;5035120;28;20577;-73
2021/04/07 05:40:08;;;;;;;7.57;3.77;;;;;;;-144.43;100.00;61244.34;5035167;28;20187;-74
2021/04/07 05:42:33;;;;;;;5.90;3.80;;;;;;;-144.43;100.00;61244.34;5017362;28;20192;-74
2021/04/07 05:44:58;;;;;;;7.83;3.57;;;;;;;-144.43;100.00;61244.34;5035165;28;20240;-74
2021/04/07 05:47:24;;;;;;;6.10;3.70;;;;;;;-144.43;100.00;61244.34;5016994;28;20223;-74
2021/04/07 05:49:49;;;;;;;5.53;3.63;;;;;;;-144.43;100.00;61244.34;5033626;28;20549;-74
2021/04/07 05:52:14;;;;;;;4.77;3.47;;;;;;;-144.43;100.00;61244.34;5017149;28;20178;-74
2021/04/07 05:54:39;;;;;;;4.83;3.23;;;;;;;-144.43;100.00;61244.34;5033417;28;20223;-74
2021/04/07 05:57:05;;;;;;;4.60;3.00;;;;;;;-144.43;100.00;61244.34;5033667;28;20705;-73
2021/04/07 05:59:30;;;;;;;5.90;2.83;;;;;;;-144.43;100.00;61244.34;5033768;28;20185;-74
2021/04/07 06:01:55;;;;;;;7.03;3.17;;;;;;;-144.43;100.00;61244.34;5033834;28;20273;-74
2021/04/07 06:04:21;;;;;;;6.37;3.30;;;;;;;-144.43;100.00;61244.34;5034561;28;20209;-74
2021/04/07 06:06:46;;;;;;;4.33;2.93;;;;;;;-144.43;100.00;61244.34;5033423;28;20220;-74
2021/04/07 06:09:11;;;;;;;5.43;2.60;;;;;;;-144.43;100.00;61244.34;5033513;28;20211;-74
2021/04/07 06:11:37;;;;;;;5.00;2.80;;;;;;;-144.43;100.00;61244.34;5034625;28;20277;-74
2021/04/07 06:14:02;;;;;;;5.07;2.97;;;;;;;-144.43;100.00;61244.34;5033444;28;20235;-73
2021/04/07 06:16:27;;;;;;;3.93;2.57;;;;;;;-144.43;100.00;61244.34;5032868;28;20200;-74
2021/04/07 06:18:53;;;;;;;3.17;2.87;;;;;;;-144.43;100.00;61244.34;5016550;28;20181;-74
2021/04/07 06:21:18;;;;;;;5.97;2.60;;;;;;;-144.43;100.00;61244.34;5033191;28;20198;-74
2021/04/07 06:23:44;;;;;;;5.73;3.20;;;;;;;-144.43;100.00;61244.34;5033031;28;20226;-74
2021/04/07 06:26:09;;;;;;;4.23;2.83;;;;;;;-144.43;100.00;61244.34;5016155;28;20664;-74
2021/04/07 06:28:34;;;;;;;7.97;3.10;;;;;;;-144.43;100.00;61244.34;5032912;28;20622;-74
2021/04/07 06:31:00;;;;;;;4.90;3.10;;;;;;;-144.43;100.00;61244.34;5034098;28;20212;-74
2021/04/07 06:33:31;;;;;;;5.60;2.43;;;;;;;-144.43;100.00;61244.34;5032795;28;20204;-74
2021/04/07 06:36:04;;;;;;;6.37;2.97;;;;;;;-144.43;100.00;61244.34;5032618;28;20176;-74
2021/04/07 06:38:34;;;;;;;3.60;2.80;;;;;;;-144.43;100.00;61244.34;5034052;28;20174;-74
2021/04/07 06:41:00;;;;;;;5.53;2.73;;;;;;;-144.43;100.00;61244.34;5032795;28;20225;-73
2021/04/07 06:43:27;;;;;;;16.67;8.60;;;;;;;-144.43;100.00;61244.34;5032201;28;20259;-74
2021/04/07 06:45:52;;;;;;;5.30;3.43;;;;;;;-144.43;100.00;61244.34;5015931;28;20253;-74
2021/04/07 06:48:18;;;;;;;7.33;3.37;;;;;;;-144.43;100.00;61244.34;5032497;28;20219;-74
2021/04/07 06:50:46;;;;;;;4.43;2.87;;;;;;;-144.43;100.00;61244.34;5032695;28;20183;-73
2021/04/07 06:53:11;;;;;;;5.83;2.60;;;;;;;-144.43;100.00;61244.34;5033736;28;20244;-74
2021/04/07 06:55:38;;;;;;;3.87;2.70;;;;;;;-144.43;100.00;61244.34;5032133;28;20620;-74
2021/04/07 06:58:05;;;;;;;5.23;2.93;;;;;;;-144.43;100.00;61244.34;5015879;28;20328;-74
2021/04/07 07:00:30;;;;;;;5.20;2.73;;;;;;;-144.43;100.00;61244.34;5016010;28;20262;-73
2021/04/07 07:03:12;;;;;;;4.20;3.37;;;;;;;-144.43;100.00;61244.34;5032398;28;20303;-74
2021/04/07 07:05:41;;;;;;;5.27;2.60;;;;;;;-144.43;100.00;61244.34;5032297;28;20177;-73
2021/04/07 07:08:09;;;;;;;7.80;2.63;;;;;;;-144.43;100.00;61244.34;5015893;28;20202;-73
2021/04/07 07:10:40;;;;;;;4.73;2.53;;;;;;;-144.43;100.00;61244.34;5032369;28;20180;-73
2021/04/07 07:13:07;;;;;;;5.60;2.30;;;;;;;-144.43;100.00;61244.34;5032081;28;20220;-74
2021/04/07 07:15:33;;;;;;;4.23;2.40;;;;;;;-144.43;100.00;61244.34;5032140;28;20172;-73
2021/04/07 07:17:58;;;;;;;2.73;2.20;;;;;;;-144.43;100.00;61244.34;5032347;28;20506;-73
2021/04/07 07:20:28;;;;;;;6.47;3.20;;;;;;;-144.43;100.00;61244.34;5032319;28;20179;-73
2021/04/07 07:22:54;;;;;;;10.00;3.40;;;;;;;-144.43;100.00;61244.34;5032023;28;20186;-74
2021/04/07 07:25:19;;;;;;;4.53;2.90;;;;;;;-144.43;100.00;61244.34;5031883;28;20274;-74
2021/04/07 07:27:45;;;;;;;4.50;2.90;;;;;;;-144.43;100.00;61244.34;5031920;28;20491;-74
2021/04/07 07:30:12;;;;;;;4.17;2.57;;;;;;;-144.43;100.00;61244.34;5033275;28;20193;-73
2021/04/07 07:32:40;;;;;;;5.80;2.60;;;;;;;-144.43;100.00;61244.34;5015545;28;20254;-74
2021/04/07 07:35:13;;;;;;;3.20;2.37;;;;;;;-144.43;100.00;61244.34;5031760;28;20180;-73
2021/04/07 07:37:40;;;;;;;9.27;4.87;;;;;;;-144.43;100.00;61244.34;5031885;28;20240;-74
2021/04/07 07:40:26;;;;;;;5.30;2.70;;;;;;;-144.43;100.00;61244.34;5033237;28;20177;-73
2021/04/07 07:42:52;;;;;;;5.13;2.03;;;;;;;-144.43;100.00;61244.34;5031539;28;20552;-73
2021/04/07 07:45:32;;;;;;;4.70;2.30;;;;;;;-144.43;100.00;61244.34;5031434;28;20179;-74
2021/04/07 07:48:09;;;;;;;3.90;2.00;;;;;;;-144.43;100.00;61244.34;5031637;28;20217;-74
2021/04/07 07:50:40;;;;;;;4.67;1.93;;;;;;;-144.43;100.00;61244.34;5031813;28;20174;-74
2021/04/07 07:53:21;;;;;;;1.80;1.60;;;;;;;-144.43;100.00;61244.34;5031612;28;20678;-74
2021/04/07 07:55:53;;;;;;;4.20;2.53;;;;;;;-144.43;100.00;61244.34;5030502;28;20174;-74
2021/04/07 07:58:26;;;;;;;6.30;3.83;;;;;;;-144.43;100.00;61244.34;5032917;28;20170;-74
2021/04/07 08:01:03;;;;;;;4.70;2.70;;;;;;;-144.43;100.00;61244.34;5011257;28;20192;-72
2021/04/07 08:03:29;;;;;;;3.60;2.60;;;;;;;-144.43;100.00;61244.34;5021027;28;20304;-75
2021/04/07 08:05:57;;;;;;;7.33;3.70;;;;;;;-144.43;100.00;61244.34;5008400;28;20328;-74
2021/04/07 08:08:23;;;;;;;5.20;3.10;;;;;;;-144.43;100.00;61244.34;5026384;28;20281;-74
2021/04/07 08:10:49;;;;;;;3.73;3.33;;;;;;;-144.43;100.00;61244.34;5026544;28;20210;-73
2021/04/07 08:13:14;;;;;;;6.10;3.07;;;;;;;-144.43;100.00;61244.34;5028295;28;20229;-74
2021/04/07 08:15:39;;;;;;;4.47;2.90;;;;;;;-144.43;100.00;61244.34;5031927;28;20208;-73
2021/04/07 08:18:05;;;;;;;4.57;3.13;;;;;;;-144.43;100.00;61244.34;5024046;28;20186;-73
2021/04/07 08:20:31;;;;;;;7.37;3.07;;;;;;;-144.43;100.00;61244.34;5030691;28;20625;-73
2021/04/07 08:22:57;;;;;;;6.20;3.70;;;;;;;-144.43;100.00;61244.34;5030215;28;20260;-73
2021/04/07 08:25:23;;;;;;;4.97;3.33;;;;;;;-144.43;100.00;61244.34;5030570;28;20185;-73
2021/04/07 08:27:53;;;;;;;7.87;4.47;;;;;;;-144.43;100.00;61244.34;5014736;28;20208;-73
2021/04/07 08:30:51;;;;;;;9.13;4.87;;;;;;;-0.58;66.86;95659.44;5084885;27;20579;-74
2021/04/07 08:33:18;;;;;;;8.83;6.50;;;;;;;-0.57;67.71;95655.97;5054913;28;20210;-74
2021/04/07 08:35:44;;;;;;;15.53;9.90;;;;;;;-0.73;67.60;95661.03;5071566;28;20179;-76
2021/04/07 08:38:09;;;;;;;11.47;8.27;;;;;;;-0.73;68.01;95660.19;5069179;28;20650;-74
2021/04/07 08:40:40;;;;;;;10.87;6.70;;;;;;;-0.78;68.26;95663.00;5074558;28;20164;-74
2021/04/07 08:43:07;;;;;;;9.77;6.20;;;;;;;-0.57;68.23;95668.72;5071404;28;20216;-74
2021/04/07 08:45:44;;;;;;;13.13;7.50;;;;;;;-0.29;66.59;95666.41;5051339;28;20248;-74
2021/04/07 08:48:22;;;;;;;11.50;6.17;;;;;;;-0.49;66.15;95660.69;5073511;28;20212;-74
2021/04/07 08:50:49;;;;;;;7.60;5.30;;;;;;;-0.07;66.13;95663.59;5065484;28;20265;-73
2021/04/07 08:53:17;;;;;;;10.03;7.73;;;;;;;0.49;63.90;95667.38;5065713;28;20221;-74
2021/04/07 08:55:51;;;;;;;8.20;4.60;;;;;;;0.74;61.38;95671.16;5075117;28;20187;-74
2021/04/07 08:58:21;;;;;;;6.40;4.30;;;;;;;0.65;61.33;95664.81;5050363;28;20667;-74
2021/04/07 09:00:51;;;;;;;6.93;4.30;;;;;;;0.22;61.86;95674.00;5051478;28;20655;-74
2021/04/07 09:03:21;;;;;;;8.80;3.97;;;;;;;0.23;63.61;95673.91;5066562;28;20208;-74
2021/04/07 09:05:48;;;;;;;10.00;4.33;;;;;;;1.07;61.65;95681.25;5061478;28;20657;-74
2021/04/07 09:08:19;;;;;;;6.70;3.60;;;;;;;1.09;60.76;95676.84;5067135;28;20289;-73
2021/04/07 09:10:47;;;;;;;6.97;3.37;;;;;;;1.30;60.53;95685.84;5050171;28;20204;-74
2021/04/07 09:13:26;;;;;;;4.07;3.43;;;;;;;1.34;59.11;95686.50;5066740;28;20697;-74
2021/04/07 09:16:03;;;;;;;4.93;3.10;;;;;;;1.30;58.65;95683.28;5066403;28;20177;-74
2021/04/07 09:18:43;;;;;;;5.87;2.87;;;;;;;1.40;59.06;95681.84;5068213;28;20174;-73
2021/04/07 09:21:17;;;;;;;4.80;3.03;;;;;;;1.50;57.28;95678.75;5069441;28;20670;-75
2021/04/07 09:23:53;;;;;;;6.00;2.97;;;;;;;1.79;56.51;95671.94;5069248;28;20200;-74
2021/04/07 09:26:22;;;;;;;4.70;3.10;;;;;;;2.18;56.60;95672.06;5071456;28;20185;-73
2021/04/07 09:28:49;;;;;;;7.57;3.23;;;;;;;2.19;56.33;95686.53;5067272;28;20197;-75
2021/04/07 09:31:22;;;;;;;6.97;2.80;;;;;;;2.08;55.43;95688.09;5068821;28;20238;-74
2021/04/07 09:33:50;;;;;;;4.63;2.90;;;;;;;2.04;55.03;95679.78;5073937;28;20197;-74
2021/04/07 09:36:16;;;;;;;5.87;3.00;;;;;;;1.86;56.84;95684.28;5049522;28;20177;-74
2021/04/07 09:38:48;;;;;;;4.47;2.60;;;;;;;1.94;56.50;95699.16;5066693;28;20201;-72
2021/04/07 09:41:17;;;;;;;6.40;3.27;;;;;;;1.48;57.66;95699.31;5058540;28;20170;-72
2021/04/07 09:43:43;;;;;;;5.47;2.70;;;;;;;1.81;56.67;95704.22;5036304;28;20197;-73
2021/04/07 09:46:09;;;;;;;5.77;3.50;;;;;;;1.42;57.59;95703.06;5036018;28;20185;-73
2021/04/07 09:48:38;;;;;;;5.40;3.20;;;;;;;1.24;58.50;95709.25;5053004;28;20182;-73
2021/04/07 09:51:23;;;;;;;5.73;2.70;;;;;;;1.21;57.67;95716.25;5036219;28;20185;-74
2021/04/07 09:53:49;;;;;;;3.73;2.63;;;;;;;1.25;57.42;95698.09;5036204;28;20267;-73
2021/04/07 09:56:14;;;;;;;4.80;2.87;;;;;;;0.27;59.89;95716.28;5052426;28;20181;-73
2021/04/07 09:58:48;;;;;;;8.33;3.10;;;;;;;0.32;61.61;95716.00;5036039;28;20540;-73
2021/04/07 10:01:15;;;;;;;5.70;3.47;;;;;;;0.61;60.74;95714.44;5057830;28;20208;-73
2021/04/07 10:03:54;;;;;;;6.50;3.60;;;;;;;0.59;61.91;95713.69;5054599;28;20278;-74
2021/04/07 10:06:25;;;;;;;7.17;2.97;;;;;;;0.93;60.68;95711.84;5056723;28;20191;-75
2021/04/07 10:09:07;;;;;;;6.53;3.27;;;;;;;0.91;59.95;95706.84;5055698;28;20682;-74
2021/04/07 10:11:36;;;;;;;11.73;5.00;;;;;;;0.90;61.04;95724.81;5058160;28;20185;-74
2021/04/07 10:14:02;;;;;;;7.93;3.73;;;;;;;1.45;59.00;95724.28;5053089;28;20221;-73
2021/04/07 10:16:40;;;;;;;5.10;3.57;;;;;;;1.92;59.02;95719.75;5035531;28;20212;-73
2021/04/07 10:19:10;;;;;;;6.03;2.77;;;;;;;1.86;58.62;95720.13;5052773;28;20198;-74
2021/04/07 10:21:37;;;;;;;5.73;2.90;;;;;;;2.02;58.12;95714.09;5053813;28;20239;-73
2021/04/07 10:24:04;;;;;;;4.97;2.93;;;;;;;1.98;56.97;95711.72;5056987;28;20198;-73
2021/04/07 10:26:29;;;;;;;6.73;2.70;;;;;;;2.23;57.38;95716.19;5051641;28;20265;-73
2021/04/07 10:28:59;;;;;;;3.63;2.50;;;;;;;1.80;57.99;95723.06;5035525;28;20736;-73
2021/04/07 10:31:25;;;;;;;4.20;3.40;;;;;;;2.07;56.99;95724.88;5052256;28;20186;-72
2021/04/07 10:34:04;;;;;;;4.23;2.57;;;;;;;2.45;55.71;95736.19;5052059;28;20197;-73
2021/04/07 10:36:30;;;;;;;6.40;2.63;;;;;;;2.16;55.93;95729.47;5051811;28;20188;-74
2021/04/07 10:39:17;;;;;;;5.87;2.73;;;;;;;2.50;55.76;95741.88;5051878;28;20170;-72
2021/04/07 10:41:52;;;;;;;4.03;2.37;;;;;;;2.55;55.56;95728.75;5045297;28;20657;-73
2021/04/07 10:44:26;;;;;;;4.13;2.63;;;;;;;2.53;54.59;95726.31;5049336;28;20197;-73
2021/04/07 10:46:51;;;;;;;5.90;2.20;;;;;;;2.33;55.80;95726.72;5032384;28;20189;-74
2021/04/07 10:49:17;;;;;;;4.90;2.20;;;;;;;2.86;54.44;95720.00;5049388;28;20181;-76
2021/04/07 10:51:44;;;;;;;5.87;2.83;;;;;;;2.62;55.22;95721.53;5048756;28;20564;-75
2021/04/07 10:54:10;;;;;;;4.07;2.37;;;;;;;2.52;54.75;95722.09;5053904;28;20650;-75
2021/04/07 10:56:36;;;;;;;5.50;2.60;;;;;;;1.85;55.05;95715.06;5055543;28;20208;-76
2021/04/07 10:59:05;;;;;;;9.23;3.00;;;;;;;2.32;55.58;95719.13;5059492;28;20185;-73
2021/04/07 11:01:32;;;;;;;5.47;3.00;;;;;;;1.91;56.04;95723.22;5051747;28;20174;-75
2021/04/07 11:03:58;;;;;;;5.37;2.77;;;;;;;1.22;57.92;95730.69;5052172;28;20208;-75
2021/04/07 11:06:23;;;;;;;7.57;2.63;;;;;;;1.41;57.24;95721.03;5044142;28;20182;-74
2021/04/07 11:08:51;;;;;;;7.97;3.63;;;;;;;1.64;57.98;95719.72;5028075;28;20751;-75
2021/04/07 11:11:23;;;;;;;4.33;2.53;;;;;;;1.96;57.88;95716.13;5039981;28;20196;-72
2021/04/07 11:13:49;;;;;;;7.20;2.97;;;;;;;2.38;56.69;95718.72;5052887;28;20209;-74
2021/04/07 11:16:15;;;;;;;6.40;2.80;;;;;;;2.82;54.71;95705.72;5050936;28;20177;-74
2021/04/07 11:18:40;;;;;;;7.73;2.80;;;;;;;3.21;54.66;95704.09;5052238;28;20197;-73